Time;durP1;ratioP1;P1;durP2;ratioP2;P2;SDS_P1;SDS_P2;PMS_P1;PMS_P2;Temp;Humidity;BMP_temperature;BMP_pressure;BME280_temperature;BME280_humidity;BME280_pressure;Samples;Min_cycle;Max_cycle;Signal;HPM_P1;HPM_P2
2024/01/28 00:02:05;;;;;;;;;6.67;6.00;;;;;20.69;39.85;102802.69;6367203;22;59838;-84
2024/01/28 00:04:30;;;;;;;;;8.67;7.33;;;;;20.70;39.53;102808.81;6367543;22;45449;-84
2024/01/28 00:06:56;;;;;;;;;6.00;5.67;;;;;20.69;39.40;102807.13;6367680;22;45278;-84
2024/01/28 00:09:21;;;;;;;;;8.67;7.00;;;;;20.69;39.27;102807.97;6367503;22;45310;-85
2024/01/28 00:11:46;;;;;;;;;8.00;6.33;;;;;20.65;39.26;102806.56;6368161;22;45260;-84
2024/01/28 00:14:12;;;;;;;;;9.25;8.25;;;;;20.69;39.56;102807.97;6367609;22;45224;-84
2024/01/28 00:16:37;;;;;;;;;8.33;7.67;;;;;20.69;39.35;102807.97;6367403;22;45924;-85
2024/01/28 00:19:03;;;;;;;;;12.00;9.33;;;;;20.65;39.37;102805.72;6368108;22;45367;-85
2024/01/28 00:21:28;;;;;;;;;8.25;6.75;;;;;20.54;39.31;102785.41;6367290;22;45326;-83
2024/01/28 00:23:54;;;;;;;;;7.67;7.67;;;;;20.52;39.45;102793.47;6367766;22;45311;-84
2024/01/28 00:26:20;;;;;;;;;6.75;6.50;;;;;20.69;39.76;102804.50;6367923;22;45403;-85
2024/01/28 00:28:45;;;;;;;;;7.00;6.50;;;;;20.65;39.33;102792.50;6367935;22;45377;-84
2024/01/28 00:31:11;;;;;;;;;9.50;6.50;;;;;20.66;39.33;102800.28;6367792;22;45221;-84
2024/01/28 00:33:36;;;;;;;;;8.25;8.25;;;;;20.51;39.42;102773.28;6368087;22;45287;-84
2024/01/28 00:36:02;;;;;;;;;10.00;8.50;;;;;20.60;39.69;102761.13;6367239;22;45299;-84
2024/01/28 00:38:31;;;;;;;;;6.75;6.50;;;;;20.58;39.69;102761.22;6367225;22;45181;-85
2024/01/28 00:40:59;;;;;;;;;10.33;7.00;;;;;20.66;39.38;102755.31;6367945;22;45327;-85
2024/01/28 00:43:24;;;;;;;;;8.25;8.25;;;;;20.17;39.23;102673.72;6367817;22;45463;-85
2024/01/28 00:45:50;;;;;;;;;8.00;8.00;;;;;20.67;39.58;102751.72;6367436;22;47791;-84
2024/01/28 00:48:15;;;;;;;;;8.33;6.33;;;;;20.34;39.33;102688.22;6367627;22;45303;-84
2024/01/28 00:50:40;;;;;;;;;6.33;6.33;;;;;20.61;39.40;102728.41;6367288;22;45274;-84
2024/01/28 00:53:06;;;;;;;;;5.67;5.67;;;;;20.66;39.51;102725.41;6367810;22;45349;-84
2024/01/28 00:55:31;;;;;;;;;10.00;7.00;;;;;20.66;39.29;102726.22;6367317;22;46139;-84
2024/01/28 00:57:58;;;;;;;;;5.33;5.33;;;;;20.66;39.16;102730.69;6367180;22;45215;-85
2024/01/28 01:00:25;;;;;;;;;10.25;7.75;;;;;20.50;39.13;102695.78;6367329;22;45110;-79
2024/01/28 01:02:52;;;;;;;;;7.75;7.75;;;;;20.65;39.33;102719.28;6367121;22;45286;-80
2024/01/28 01:05:17;;;;;;;;;9.25;6.75;;;;;20.65;39.12;102718.44;6366479;22;46332;-79
2024/01/28 01:07:43;;;;;;;;;8.75;7.75;;;;;20.54;39.07;102691.06;6367382;22;45289;-77
2024/01/28 01:10:08;;;;;;;;;11.00;8.00;;;;;20.63;39.36;102705.34;6367087;22;45314;-79
2024/01/28 01:12:34;;;;;;;;;10.33;9.00;;;;;20.46;38.96;102688.19;6367060;22;45427;-80
2024/01/28 01:14:59;;;;;;;;;7.50;7.50;;;;;20.49;39.36;102682.66;6366897;22;52896;-81
2024/01/28 01:17:24;;;;;;;;;9.00;6.00;;;;;20.52;39.20;102682.41;6368101;22;45338;-81
2024/01/28 01:19:49;;;;;;;;;10.25;7.00;;;;;20.52;39.02;102687.69;6368746;22;45233;-81
2024/01/28 01:22:15;;;;;;;;;11.50;8.00;;;;;20.53;38.98;102678.81;6368590;22;51590;-80
2024/01/28 01:24:40;;;;;;;;;9.50;9.50;;;;;20.57;39.07;102682.03;6369027;22;45252;-79
2024/01/28 01:27:05;;;;;;;;;7.67;7.67;;;;;20.51;38.73;102672.78;6368435;22;56548;-81
2024/01/28 01:29:31;;;;;;;;;7.50;7.25;;;;;20.52;39.14;102669.19;6368875;22;45229;-81
2024/01/28 01:31:56;;;;;;;;;6.50;6.50;;;;;20.57;38.79;102680.22;6368545;22;45401;-81
2024/01/28 01:34:21;;;;;;;;;8.75;8.75;;;;;20.28;39.36;102638.50;6367705;22;51687;-80
2024/01/28 01:36:47;;;;;;;;;8.00;6.50;;;;;20.39;39.06;102648.19;6368399;22;45338;-81
2024/01/28 01:39:16;;;;;;;;;11.00;8.75;;;;;20.59;39.07;102685.38;6368575;22;45284;-81
2024/01/28 01:41:43;;;;;;;;;8.75;7.00;;;;;20.55;38.85;102670.75;6368481;22;45462;-79
2024/01/28 01:44:09;;;;;;;;;9.00;7.25;;;;;20.47;39.08;102647.56;6368516;22;45298;-80
2024/01/28 01:46:34;;;;;;;;;10.00;9.33;;;;;20.61;39.06;102664.94;6368494;22;45236;-80
2024/01/28 01:48:59;;;;;;;;;10.75;8.75;;;;;20.57;39.36;102652.94;6368529;22;45299;-79
2024/01/28 01:51:26;;;;;;;;;6.50;4.50;;;;;20.53;39.05;102644.44;6368273;22;45470;-81
2024/01/28 01:53:52;;;;;;;;;9.50;8.75;;;;;20.60;39.13;102653.53;6368256;22;46324;-81
2024/01/28 01:56:18;;;;;;;;;10.00;6.50;;;;;20.48;38.84;102638.69;6368736;22;45253;-81
2024/01/28 01:58:46;;;;;;;;;6.33;6.33;;;;;20.59;39.09;102651.84;6368506;22;45103;-80
2024/01/28 02:01:16;;;;;;;;;6.00;6.00;;;;;20.46;39.04;102622.09;6368348;22;45224;-81
2024/01/28 02:03:41;;;;;;;;;8.00;8.00;;;;;20.60;38.99;102640.31;6367766;22;47031;-80
2024/01/28 02:06:06;;;;;;;;;6.00;6.00;;;;;20.49;38.88;102630.63;6368083;22;45335;-81
2024/01/28 02:08:32;;;;;;;;;7.00;6.50;;;;;20.57;39.09;102634.44;6368522;22;45373;-81
2024/01/28 02:11:01;;;;;;;;;11.25;8.75;;;;;20.45;38.91;102625.72;6368922;22;45514;-81
2024/01/28 02:13:27;;;;;;;;;8.75;8.00;;;;;20.44;38.51;102624.03;6368115;22;47032;-81
2024/01/28 02:15:52;;;;;;;;;8.50;8.00;;;;;20.46;38.83;102614.16;6368562;22;45228;-81
2024/01/28 02:18:17;;;;;;;;;8.50;7.75;;;;;20.58;39.06;102633.47;6368459;22;45241;-81
2024/01/28 02:20:42;;;;;;;;;7.75;7.00;;;;;20.57;39.11;102622.06;6368326;22;51060;-81
2024/01/28 02:23:08;;;;;;;;;7.75;6.25;;;;;20.26;39.10;102574.34;6368197;22;56160;-81
2024/01/28 02:25:33;;;;;;;;;7.75;6.50;;;;;20.59;38.82;102621.91;6368443;22;45251;-81
2024/01/28 02:27:58;;;;;;;;;8.50;7.50;;;;;20.59;39.30;102608.69;6368699;22;45297;-79
2024/01/28 02:30:24;;;;;;;;;8.00;7.50;;;;;20.49;38.87;102592.75;6368239;22;45472;-81
2024/01/28 02:32:51;;;;;;;;;8.75;7.75;;;;;20.49;39.18;102590.09;6367644;22;47223;-80
2024/01/28 02:35:17;;;;;;;;;10.75;9.25;;;;;20.49;39.06;102592.75;6368511;22;45140;-80
2024/01/28 02:37:43;;;;;;;;;6.25;6.25;;;;;20.48;39.01;102581.34;6368631;22;45189;-80
2024/01/28 02:40:09;;;;;;;;;7.00;7.00;;;;;20.58;39.12;102597.25;6368340;22;45213;-81
2024/01/28 02:42:35;;;;;;;;;11.50;8.50;;;;;20.58;38.86;102602.56;6339946;22;47929;-80
2024/01/28 02:45:00;;;;;;;;;8.25;7.75;;;;;20.56;38.84;102595.72;6368510;22;45273;-80
2024/01/28 02:47:25;;;;;;;;;7.50;7.50;;;;;20.56;39.09;102595.72;6368153;22;45300;-80
2024/01/28 02:49:51;;;;;;;;;8.25;5.50;;;;;20.58;38.72;102596.44;6368540;22;45304;-81
2024/01/28 02:52:16;;;;;;;;;8.25;8.00;;;;;20.58;38.97;102591.16;6367717;22;58636;-80
2024/01/28 02:54:41;;;;;;;;;8.00;7.25;;;;;20.49;38.94;102579.53;6367125;22;58026;-81
2024/01/28 02:57:07;;;;;;;;;6.00;4.25;;;;;20.45;38.87;102576.31;6368675;22;45189;-80
2024/01/28 02:59:32;;;;;;;;;8.75;7.50;;;;;20.47;38.73;102579.66;6368200;22;45352;-79
2024/01/28 03:01:57;;;;;;;;;8.00;8.00;;;;;20.58;38.73;102605.19;6367290;22;46458;-81
2024/01/28 03:04:23;;;;;;;;;7.50;6.50;;;;;20.55;38.94;102597.53;6368464;22;45303;-81
2024/01/28 03:06:48;;;;;;;;;9.00;7.00;;;;;20.54;39.19;102595.84;6368476;22;45287;-81
2024/01/28 03:09:13;;;;;;;;;9.75;8.25;;;;;20.34;39.00;102574.56;6368134;22;45371;-81
2024/01/28 03:11:39;;;;;;;;;8.00;7.75;;;;;20.49;38.67;102585.66;6368052;22;50588;-80
2024/01/28 03:14:06;;;;;;;;;9.00;7.00;;;;;20.59;38.83;102598.97;6368320;22;45284;-80
2024/01/28 03:16:32;;;;;;;;;9.50;8.25;;;;;20.59;39.02;102600.75;6367778;22;45295;-80
2024/01/28 03:18:57;;;;;;;;;8.50;7.50;;;;;20.48;39.03;102577.88;6368049;22;45348;-81
2024/01/28 03:21:23;;;;;;;;;7.75;7.25;;;;;20.43;38.86;102580.88;6368000;22;46063;-81
2024/01/28 03:23:48;;;;;;;;;7.25;6.75;;;;;20.58;38.87;102604.38;6368098;22;45279;-80
2024/01/28 03:26:14;;;;;;;;;9.00;8.25;;;;;20.48;38.97;102589.25;6367923;22;45422;-80
2024/01/28 03:28:39;;;;;;;;;9.00;9.00;;;;;20.51;39.10;102596.09;6368374;22;45161;-80
2024/01/28 03:31:04;;;;;;;;;6.00;6.00;;;;;20.58;38.99;102593.81;6366799;22;55526;-81
2024/01/28 03:33:30;;;;;;;;;9.25;8.00;;;;;20.46;38.77;102583.25;6368295;22;45588;-80
2024/01/28 03:35:56;;;;;;;;;9.50;7.50;;;;;20.58;38.93;102593.81;6367965;22;45487;-80
2024/01/28 03:38:21;;;;;;;;;10.50;7.25;;;;;20.49;39.12;102572.44;6367467;22;45370;-80
2024/01/28 03:40:46;;;;;;;;;8.50;6.50;;;;;20.50;38.63;102570.66;6367838;22;46039;-80
2024/01/28 03:43:12;;;;;;;;;7.25;7.25;;;;;20.44;38.54;102566.69;6368147;22;46159;-79
2024/01/28 03:45:37;;;;;;;;;9.75;8.00;;;;;20.58;39.18;102585.88;6367936;22;45225;-80
2024/01/28 03:48:02;;;;;;;;;8.50;7.75;;;;;20.56;39.03;102580.69;6367913;22;49406;-80
2024/01/28 03:50:28;;;;;;;;;9.00;8.33;;;;;20.46;38.98;102566.56;6367496;22;46010;-80
2024/01/28 03:52:53;;;;;;;;;8.25;7.25;;;;;20.57;38.95;102582.38;6367664;22;45351;-80
2024/01/28 03:55:18;;;;;;;;;8.50;8.00;;;;;20.54;38.97;102579.16;6367710;22;52351;-81
2024/01/28 03:57:44;;;;;;;;;7.50;7.25;;;;;20.58;38.93;102584.03;6367851;22;45457;-80
2024/01/28 04:00:11;;;;;;;;;9.25;8.00;;;;;20.58;38.89;102583.22;6367526;22;45936;-80
2024/01/28 04:02:37;;;;;;;;;8.00;8.00;;;;;20.53;39.01;102572.19;6367598;22;45244;-80
2024/01/28 04:05:03;;;;;;;;;9.00;9.00;;;;;20.54;38.87;102576.50;6367751;22;45150;-80
2024/01/28 04:07:29;;;;;;;;;7.50;7.50;;;;;20.56;38.37;102585.97;6368174;22;45231;-80
2024/01/28 04:09:54;;;;;;;;;9.25;7.75;;;;;20.42;38.73;102558.06;6367297;22;47017;-81
2024/01/28 04:12:20;;;;;;;;;9.75;7.75;;;;;20.57;38.90;102577.09;6367977;22;45145;-80
2024/01/28 04:14:45;;;;;;;;;11.25;6.75;;;;;20.43;38.77;102549.16;6367141;22;45315;-80
2024/01/28 04:17:10;;;;;;;;;7.75;7.50;;;;;20.48;38.41;102552.25;6367504;22;45319;-80
2024/01/28 04:19:36;;;;;;;;;9.00;7.50;;;;;20.57;38.60;102563.03;6367491;22;46831;-81
2024/01/28 04:22:01;;;;;;;;;9.25;8.25;;;;;20.47;38.63;102547.94;6367735;22;46843;-80
2024/01/28 04:24:26;;;;;;;;;8.50;8.50;;;;;20.54;38.37;102550.06;6367421;22;54054;-80
2024/01/28 04:26:53;;;;;;;;;6.75;6.75;;;;;20.38;38.36;102530.19;6367641;22;45248;-80
2024/01/28 04:29:19;;;;;;;;;8.00;8.00;;;;;20.55;38.31;102549.09;6366950;22;46109;-81
2024/01/28 04:31:44;;;;;;;;;11.25;9.25;;;;;20.47;38.79;102529.44;6367601;22;45383;-80
2024/01/28 04:34:12;;;;;;;;;10.00;10.00;;;;;20.51;38.69;102540.56;6367608;22;45350;-80
2024/01/28 04:36:37;;;;;;;;;9.00;7.67;;;;;20.50;38.48;102523.91;6367905;22;45313;-79
2024/01/28 04:39:03;;;;;;;;;10.00;9.75;;;;;20.23;38.45;102476.78;6367175;22;54624;-80
2024/01/28 04:41:28;;;;;;;;;8.25;6.50;;;;;20.50;39.07;102509.81;6367226;22;45217;-80
2024/01/28 04:43:54;;;;;;;;;9.00;7.50;;;;;20.43;38.64;102506.84;6367434;22;45226;-80
2024/01/28 04:46:20;;;;;;;;;8.50;8.50;;;;;20.45;38.75;102527.88;6367387;22;45240;-79
2024/01/28 04:48:45;;;;;;;;;10.75;7.75;;;;;20.48;38.30;102541.66;6367595;22;45918;-79
2024/01/28 04:51:10;;;;;;;;;6.75;6.75;;;;;20.48;38.72;102536.38;6367413;22;45360;-80
2024/01/28 04:53:36;;;;;;;;;9.25;9.25;;;;;20.50;38.32;102529.19;6368682;22;45303;-80
2024/01/28 04:56:02;;;;;;;;;7.75;6.75;;;;;20.54;38.71;102521.81;6369164;22;45457;-79
2024/01/28 04:58:27;;;;;;;;;7.00;5.75;;;;;20.43;38.77;102483.06;6368116;22;45947;-80
2024/01/28 05:00:54;;;;;;;;;7.00;7.00;;;;;20.52;38.73;102499.97;6368630;22;45304;-80
2024/01/28 05:03:19;;;;;;;;;11.00;8.25;;;;;20.40;38.63;102485.97;6368568;22;45281;-80
2024/01/28 05:05:45;;;;;;;;;10.00;8.75;;;;;20.55;38.54;102510.28;6368892;22;45395;-81
2024/01/28 05:08:10;;;;;;;;;7.50;6.50;;;;;20.55;38.36;102512.06;6368831;22;46235;-80
2024/01/28 05:10:35;;;;;;;;;6.50;4.00;;;;;20.55;39.07;102517.38;6368835;22;45272;-80
2024/01/28 05:13:01;;;;;;;;;9.75;7.50;;;;;20.39;38.50;102510.72;6368264;22;51567;-80
2024/01/28 05:15:26;;;;;;;;;9.00;7.00;;;;;20.38;38.50;102509.88;6368213;22;49318;-80
2024/01/28 05:17:51;;;;;;;;;7.50;7.25;;;;;20.53;38.79;102533.38;6368947;22;45200;-79
2024/01/28 05:20:17;;;;;;;;;9.00;7.67;;;;;20.53;38.56;102522.81;6368499;22;45165;-80
2024/01/28 05:22:43;;;;;;;;;8.75;7.00;;;;;20.53;38.43;102514.88;6368507;22;45145;-80
2024/01/28 05:25:09;;;;;;;;;7.50;7.50;;;;;20.53;38.48;102490.22;6368407;22;45110;-80
2024/01/28 05:27:35;;;;;;;;;10.00;8.50;;;;;20.51;38.31;102482.41;6368050;22;45952;-80
2024/01/28 05:30:01;;;;;;;;;7.50;6.50;;;;;20.41;38.20;102477.06;6368635;22;45315;-80
2024/01/28 05:32:26;;;;;;;;;9.00;7.00;;;;;20.42;38.52;102481.38;6368904;22;45259;-80
2024/01/28 05:34:51;;;;;;;;;7.33;7.00;;;;;20.50;38.23;102478.09;6368807;22;45320;-80
2024/01/28 05:37:17;;;;;;;;;13.00;6.75;;;;;20.49;38.27;102484.34;6368849;22;46380;-79
2024/01/28 05:39:42;;;;;;;;;7.75;6.00;;;;;20.49;38.17;102493.13;6368076;22;47862;-81
2024/01/28 05:42:08;;;;;;;;;8.25;7.25;;;;;20.13;38.32;102439.72;6368018;22;45367;-80
2024/01/28 05:44:33;;;;;;;;;9.00;7.00;;;;;20.51;38.20;102503.56;6368442;22;45249;-80
2024/01/28 05:46:59;;;;;;;;;3.00;0.00;;;;;20.51;38.17;102514.97;6368814;22;46053;-80
2024/01/28 05:49:24;;;;;;;;;8.25;6.75;;;;;20.49;38.46;102503.69;6368626;22;45315;-80
2024/01/28 05:51:49;;;;;;;;;7.25;6.00;;;;;20.44;38.25;102489.19;6368369;22;45477;-80
2024/01/28 05:54:15;;;;;;;;;8.25;8.00;;;;;20.54;38.78;102502.47;6368731;22;45438;-79
2024/01/28 05:56:41;;;;;;;;;9.00;7.25;;;;;20.54;38.39;102499.81;6368198;22;45312;-80
2024/01/28 05:59:06;;;;;;;;;11.00;8.00;;;;;20.36;38.69;102471.31;6368826;22;45264;-80
2024/01/28 06:01:32;;;;;;;;;7.33;6.00;;;;;20.49;38.55;102497.56;6367956;22;52884;-80
2024/01/28 06:03:58;;;;;;;;;7.67;6.33;;;;;20.26;38.39;102461.53;6368830;22;45195;-80
2024/01/28 06:06:23;;;;;;;;;7.67;7.67;;;;;20.24;38.62;102455.53;6368445;22;46216;-81
2024/01/28 06:08:48;;;;;;;;;7.75;6.50;;;;;20.21;38.19;102442.56;6368140;22;45173;-81
2024/01/28 06:11:13;;;;;;;;;9.50;7.25;;;;;20.52;38.89;102489.38;6368798;22;45412;-80
2024/01/28 06:13:39;;;;;;;;;9.00;6.00;;;;;20.51;38.48;102499.09;6368666;22;45332;-80
2024/01/28 06:16:06;;;;;;;;;6.33;5.33;;;;;20.38;38.31;102464.09;6368055;22;46843;-81
2024/01/28 06:18:31;;;;;;;;;8.25;7.00;;;;;20.43;38.68;102464.53;6368121;22;45299;-80
2024/01/28 06:20:57;;;;;;;;;5.33;5.33;;;;;20.53;38.58;102469.06;6368652;22;45315;-80
2024/01/28 06:23:22;;;;;;;;;8.00;7.00;;;;;20.53;38.71;102477.84;6367525;22;53385;-80
2024/01/28 06:25:47;;;;;;;;;6.75;6.75;;;;;20.39;38.40;102448.13;6368584;22;46054;-80
2024/01/28 06:28:13;;;;;;;;;9.00;7.00;;;;;20.48;38.48;102467.63;6367968;22;45339;-80
2024/01/28 06:30:38;;;;;;;;;6.25;5.25;;;;;20.03;38.32;102402.66;6368667;22;45280;-81
2024/01/28 06:33:04;;;;;;;;;6.33;6.33;;;;;20.51;38.37;102485.88;6368666;22;45408;-80
2024/01/28 06:35:30;;;;;;;;;6.25;6.25;;;;;20.51;38.27;102503.56;6367946;22;47268;-80
2024/01/28 06:37:55;;;;;;;;;8.67;7.00;;;;;20.36;38.39;102473.97;6367513;22;45763;-80
2024/01/28 06:40:21;;;;;;;;;6.00;6.00;;;;;20.50;38.18;102486.03;6368639;22;45293;-80
2024/01/28 06:42:46;;;;;;;;;9.25;7.00;;;;;20.43;38.11;102472.47;6368446;22;45165;-80
2024/01/28 06:45:11;;;;;;;;;6.00;5.25;;;;;20.51;38.26;102479.75;6367707;22;54086;-80
2024/01/28 06:47:37;;;;;;;;;8.75;7.00;;;;;20.32;38.00;102448.75;6368437;22;45197;-80
2024/01/28 06:50:02;;;;;;;;;8.00;7.00;;;;;20.50;38.20;102471.00;6368565;22;45196;-80
2024/01/28 06:52:29;;;;;;;;;8.67;7.33;;;;;20.47;38.33;102465.97;6367999;22;45224;-80
2024/01/28 06:54:54;;;;;;;;;7.50;7.50;;;;;20.39;38.16;102455.22;6367780;22;46946;-80
2024/01/28 06:57:19;;;;;;;;;9.75;7.50;;;;;20.37;38.01;102459.78;6367969;22;45189;-80
2024/01/28 06:59:45;;;;;;;;;7.50;7.00;;;;;20.49;38.19;102476.41;6368256;22;45178;-80
2024/01/28 07:02:11;;;;;;;;;8.00;7.00;;;;;20.51;38.13;102482.41;6368460;22;45271;-80
2024/01/28 07:04:36;;;;;;;;;5.50;5.50;;;;;20.52;38.32;102481.44;6368140;22;45201;-80
2024/01/28 07:07:02;;;;;;;;;9.25;6.50;;;;;20.47;38.27;102475.72;6367873;22;45260;-80
2024/01/28 07:09:27;;;;;;;;;7.25;5.75;;;;;20.53;38.14;102487.59;6368203;22;45690;-80
2024/01/28 07:11:53;;;;;;;;;7.50;7.00;;;;;20.45;38.34;102470.56;6368451;22;45307;-81
2024/01/28 07:14:18;;;;;;;;;6.00;4.25;;;;;20.50;38.17;102470.16;6339052;22;46169;-81
2024/01/28 07:16:44;;;;;;;;;7.50;6.50;;;;;20.44;38.04;102454.81;6368153;22;45364;-80
2024/01/28 07:19:09;;;;;;;;;6.50;6.25;;;;;20.38;38.18;102446.44;6368486;22;45265;-81
2024/01/28 07:21:34;;;;;;;;;9.75;8.75;;;;;20.45;38.43;102448.56;6367299;22;45706;-80
2024/01/28 07:24:00;;;;;;;;;6.00;5.25;;;;;20.51;38.18;102455.97;6368267;22;45994;-80
2024/01/28 07:26:25;;;;;;;;;10.00;7.00;;;;;20.21;38.20;102407.38;6368303;22;45325;-79
2024/01/28 07:28:51;;;;;;;;;5.25;4.50;;;;;20.43;38.53;102442.56;6368004;22;45355;-80
2024/01/28 07:31:16;;;;;;;;;6.00;6.00;;;;;20.37;38.24;102425.44;6367937;22;45351;-79
2024/01/28 07:33:41;;;;;;;;;10.25;7.00;;;;;20.45;38.21;102436.19;6367685;22;47480;-80
2024/01/28 07:36:07;;;;;;;;;6.50;6.50;;;;;20.49;38.36;102442.88;6367372;22;45266;-80
2024/01/28 07:38:32;;;;;;;;;7.50;6.75;;;;;20.37;38.63;102425.44;6368236;22;45225;-80
2024/01/28 07:40:59;;;;;;;;;8.25;5.75;;;;;20.32;38.60;102422.34;6367959;22;49993;-81
2024/01/28 07:43:24;;;;;;;;;3.00;3.00;;;;;20.50;38.25;102451.66;6367686;22;46281;-80
2024/01/28 07:45:50;;;;;;;;;8.75;7.00;;;;;20.32;38.19;102420.53;6368125;22;45266;-80
2024/01/28 07:48:16;;;;;;;;;10.50;6.75;;;;;20.42;38.31;102443.53;6367907;22;45434;-80
2024/01/28 07:50:42;;;;;;;;;8.00;7.25;;;;;20.48;38.02;102457.06;6367256;22;45244;-80
2024/01/28 07:53:07;;;;;;;;;7.25;7.25;;;;;20.20;38.49;102409.19;6367944;22;46126;-81
2024/01/28 07:55:33;;;;;;;;;9.50;8.50;;;;;20.32;38.02;102414.41;6367588;22;45302;-80
2024/01/28 07:57:58;;;;;;;;;8.75;6.00;;;;;20.49;37.90;102452.63;6368052;22;45277;-80
2024/01/28 08:00:25;;;;;;;;;7.50;5.75;;;;;20.42;38.16;102440.88;6368034;22;45417;-80
2024/01/28 08:02:51;;;;;;;;;8.75;6.50;;;;;20.33;37.99;102426.63;6367518;22;47187;-80
2024/01/28 08:05:16;;;;;;;;;5.75;5.75;;;;;20.35;37.89;102436.09;6367447;22;45229;-80
2024/01/28 08:07:42;;;;;;;;;6.75;6.75;;;;;20.33;37.71;102427.47;6367750;22;45189;-80
2024/01/28 08:10:07;;;;;;;;;6.67;5.33;;;;;20.48;37.94;102454.41;6367570;22;45201;-80
2024/01/28 08:12:33;;;;;;;;;5.00;4.25;;;;;20.43;37.88;102435.47;6367198;22;46200;-81
2024/01/28 08:14:59;;;;;;;;;9.75;8.00;;;;;20.38;38.42;102429.72;6367956;22;45203;-81
2024/01/28 08:17:24;;;;;;;;;8.00;8.00;;;;;20.49;38.07;102432.31;6367980;22;45192;-81
2024/01/28 08:19:49;;;;;;;;;8.75;7.75;;;;;20.39;38.07;102413.75;6367679;22;45307;-81
2024/01/28 08:22:15;;;;;;;;;8.00;7.50;;;;;20.44;38.44;102423.09;6367860;22;46145;-81
2024/01/28 08:24:40;;;;;;;;;9.50;9.00;;;;;20.46;38.39;102424.63;6367555;22;45189;-80
2024/01/28 08:27:05;;;;;;;;;8.00;7.00;;;;;20.43;38.29;102418.78;6368100;22;45546;-80
2024/01/28 08:29:31;;;;;;;;;6.00;6.00;;;;;20.44;38.24;102416.00;6367500;22;45492;-81
2024/01/28 08:32:00;;;;;;;;;6.25;6.00;;;;;20.46;38.15;102415.84;6367265;22;46967;-80
2024/01/28 08:34:25;;;;;;;;;5.25;3.50;;;;;20.42;38.49;102417.09;6367142;22;45331;-80
2024/01/28 08:36:50;;;;;;;;;6.50;5.00;;;;;20.31;38.14;102405.63;6366783;22;45327;-80
2024/01/28 08:39:16;;;;;;;;;8.75;6.50;;;;;20.51;38.07;102432.16;6367170;22;58393;-82
2024/01/28 08:41:41;;;;;;;;;8.67;7.00;;;;;20.41;38.22;102413.59;6367002;22;47170;-80
2024/01/28 08:44:07;;;;;;;;;8.00;6.67;;;;;20.51;38.20;102435.66;6367698;22;45280;-80
2024/01/28 08:46:32;;;;;;;;;7.25;7.25;;;;;20.51;37.90;102425.06;6367367;22;45357;-80
2024/01/28 08:48:57;;;;;;;;;8.25;7.00;;;;;20.39;38.13;102405.81;6338846;22;45181;-80
2024/01/28 08:51:23;;;;;;;;;6.00;5.00;;;;;20.37;38.44;102415.69;6367695;22;46005;-80
2024/01/28 08:53:48;;;;;;;;;6.00;6.00;;;;;20.45;37.81;102420.31;6367581;22;50883;-81
2024/01/28 08:56:13;;;;;;;;;9.00;5.50;;;;;20.43;38.06;102426.72;6367647;22;45155;-80
2024/01/28 08:58:39;;;;;;;;;7.67;7.67;;;;;20.53;38.12;102439.97;6367168;22;53809;-81
2024/01/28 09:01:05;;;;;;;;;7.50;6.00;;;;;20.37;38.42;102412.22;6367500;22;45362;-81
2024/01/28 09:03:30;;;;;;;;;8.00;8.00;;;;;20.43;38.25;102422.25;6366728;22;45252;-81
2024/01/28 09:05:55;;;;;;;;;7.50;5.50;;;;;20.51;38.22;102446.22;6367769;22;45405;-81
2024/01/28 09:08:21;;;;;;;;;7.00;7.00;;;;;20.38;38.59;102422.63;6367738;22;45309;-81
2024/01/28 09:10:46;;;;;;;;;5.50;5.50;;;;;20.47;38.01;102433.41;6365999;22;46227;-81
2024/01/28 09:13:11;;;;;;;;;6.00;6.00;;;;;20.37;38.11;102430.72;6367298;22;45295;-81
2024/01/28 09:15:37;;;;;;;;;4.33;4.33;;;;;20.54;38.10;102446.94;6365791;22;57543;-81
2024/01/28 09:18:02;;;;;;;;;6.75;6.00;;;;;20.50;37.86;102441.09;6366538;22;45441;-82
2024/01/28 09:20:27;;;;;;;;;7.25;7.25;;;;;20.42;38.30;102425.03;6367883;22;46212;-84
2024/01/28 09:22:53;;;;;;;;;5.50;5.50;;;;;20.60;38.18;102449.06;6366795;22;46032;-82
2024/01/28 09:25:18;;;;;;;;;5.75;5.75;;;;;20.35;38.35;102406.22;6367297;22;45210;-80
2024/01/28 09:27:48;;;;;;;;;9.75;6.75;;;;;20.65;38.44;102446.88;6367074;22;45304;-83
2024/01/28 09:30:14;;;;;;;;;8.25;7.50;;;;;20.61;38.32;102440.13;6366871;22;46160;-83
2024/01/28 09:32:39;;;;;;;;;6.50;6.50;;;;;20.66;38.22;102448.53;6366526;22;45354;-78
2024/01/28 09:35:05;;;;;;;;;6.50;6.50;;;;;20.46;37.87;102406.13;6366645;22;45261;-76
2024/01/28 09:37:30;;;;;;;;;6.33;6.33;;;;;20.46;38.60;102403.47;6367380;22;45174;-81
2024/01/28 09:39:55;;;;;;;;;6.67;5.00;;;;;20.58;38.32;102417.44;6368237;22;46465;-76
2024/01/28 09:42:34;;;;;;;;;7.00;6.00;;;;;20.79;38.33;102453.59;6368677;22;45321;-75
2024/01/28 09:44:59;;;;;;;;;15.75;12.50;;;;;20.82;38.70;102449.84;6368500;22;45279;-76
2024/01/28 09:47:27;;;;;;;;;10.75;9.25;;;;;20.84;38.35;102448.75;6339675;22;45281;-74
2024/01/28 09:49:54;;;;;;;;;20.25;13.75;;;;;20.87;39.27;102445.00;6368192;22;47014;-73
2024/01/28 09:52:19;;;;;;;;;17.75;14.25;;;;;20.92;40.15;102449.91;6367719;22;45201;-74
2024/01/28 09:54:44;;;;;;;;;14.25;10.75;;;;;20.96;39.91;102449.50;6368423;22;45252;-75
2024/01/28 09:57:11;;;;;;;;;19.75;15.00;;;;;21.01;40.15;102458.84;6368697;22;45385;-73
2024/01/28 09:59:36;;;;;;;;;12.25;9.25;;;;;21.03;39.88;102448.97;6368434;22;45237;-75
2024/01/28 10:02:03;;;;;;;;;16.50;14.50;;;;;21.06;39.78;102454.84;6368159;22;45262;-77
2024/01/28 10:04:29;;;;;;;;;21.50;11.50;;;;;21.01;39.78;102443.84;6339988;22;45413;-76
2024/01/28 10:06:57;;;;;;;;;16.50;11.50;;;;;21.10;40.13;102442.19;6368532;22;45458;-76
2024/01/28 10:09:26;;;;;;;;;14.00;10.50;;;;;21.11;39.74;102449.16;6368265;22;45995;-76
2024/01/28 10:11:51;;;;;;;;;13.50;11.50;;;;;21.14;40.29;102442.75;6368111;22;45282;-74
2024/01/28 10:14:17;;;;;;;;;14.00;11.75;;;;;21.15;39.98;102447.09;6368205;22;45457;-77
2024/01/28 10:16:46;;;;;;;;;15.00;11.25;;;;;21.17;40.20;102447.78;6367634;22;45355;-77
2024/01/28 10:19:11;;;;;;;;;17.00;13.00;;;;;21.15;39.58;102452.38;6367488;22;45998;-74
2024/01/28 10:21:36;;;;;;;;;12.00;10.00;;;;;21.15;38.29;102447.09;6367844;22;45238;-77
2024/01/28 10:24:02;;;;;;;;;16.00;12.00;;;;;20.83;37.50;102404.75;6368822;22;45256;-76
2024/01/28 10:26:27;;;;;;;;;12.25;11.00;;;;;20.97;36.91;102431.81;6367681;22;45537;-74
2024/01/28 10:28:52;;;;;;;;;14.25;12.75;;;;;20.96;36.27;102446.00;6367780;22;46239;-75
2024/01/28 10:31:22;;;;;;;;;17.25;12.50;;;;;20.93;36.54;102449.75;6367629;22;45215;-75
2024/01/28 10:33:48;;;;;;;;;11.25;11.25;;;;;20.77;35.88;102429.09;6367727;22;45349;-75
2024/01/28 10:36:16;;;;;;;;;15.00;11.00;;;;;20.88;36.22;102451.13;6367853;22;45475;-75
2024/01/28 10:38:45;;;;;;;;;9.75;8.75;;;;;20.82;35.95;102442.75;6367705;22;47283;-74
2024/01/28 10:41:15;;;;;;;;;11.75;11.00;;;;;20.81;36.28;102437.59;6339309;22;45236;-75
2024/01/28 10:43:57;;;;;;;;;10.50;10.00;;;;;20.83;35.94;102439.16;6368683;22;45282;-74
2024/01/28 10:46:31;;;;;;;;;15.00;9.75;;;;;20.83;35.76;102433.84;6367442;22;45313;-75
2024/01/28 10:49:03;;;;;;;;;13.25;9.50;;;;;20.84;35.90;102440.00;6368239;22;45984;-76
2024/01/28 10:51:31;;;;;;;;;10.75;10.50;;;;;20.53;35.84;102379.16;6367376;22;45214;-78
2024/01/28 10:53:57;;;;;;;;;12.00;7.75;;;;;20.87;36.07;102438.88;6367644;22;45273;-83
2024/01/28 10:56:23;;;;;;;;;11.25;9.75;;;;;20.87;36.42;102429.13;6369137;22;45361;-82
2024/01/28 10:58:50;;;;;;;;;10.00;9.25;;;;;20.90;35.92;102433.31;6369430;22;47441;-79
2024/01/28 11:01:16;;;;;;;;;11.50;11.50;;;;;20.81;36.11;102421.72;6367519;22;45314;-76
2024/01/28 11:03:42;;;;;;;;;13.25;10.75;;;;;20.82;35.74;102426.03;6367741;22;45267;-74
2024/01/28 11:06:08;;;;;;;;;12.50;11.50;;;;;20.79;35.36;102427.13;6367472;22;45445;-75
2024/01/28 11:08:33;;;;;;;;;13.75;13.25;;;;;20.74;35.53;102430.19;6367897;22;45227;-75
2024/01/28 11:10:59;;;;;;;;;16.50;11.00;;;;;20.62;35.54;102405.66;6367631;22;60436;-81
2024/01/28 11:13:24;;;;;;;;;13.00;10.75;;;;;20.67;35.21;102422.91;6367887;22;45220;-76
2024/01/28 11:15:50;;;;;;;;;9.25;9.25;;;;;20.66;35.60;102411.50;6367865;22;45408;-76